Time;durP1;ratioP1;P1;durP2;ratioP2;P2;SDS_P1;SDS_P2;PMS_P1;PMS_P2;Temp;Humidity;BMP_temperature;BMP_pressure;BME280_temperature;BME280_humidity;BME280_pressure;Samples;Min_cycle;Max_cycle;Signal;HPM_P1;HPM_P2
2024/01/16 00:01:51;;;;;;;0.00;0.00;;;;;;;1.25;100.00;101102.41;5095001;27;97221;-27
2024/01/16 00:04:16;;;;;;;0.05;0.05;;;;;;;1.27;100.00;101108.59;5093551;27;98098;-27
2024/01/16 00:06:42;;;;;;;0.40;0.30;;;;;;;1.23;100.00;101095.34;5076061;27;96943;-27
2024/01/16 00:09:09;;;;;;;0.03;0.03;;;;;;;1.20;100.00;101096.28;5093855;27;99719;-27
2024/01/16 00:11:43;;;;;;;0.00;0.00;;;;;;;1.20;100.00;101093.63;5075796;27;101163;-27
2024/01/16 00:14:08;;;;;;;0.00;0.00;;;;;;;1.35;100.00;101104.91;5076061;27;97071;-28
2024/01/16 00:16:34;;;;;;;0.00;0.00;;;;;;;1.41;100.00;101107.47;5075889;27;96879;-27
2024/01/16 00:18:59;;;;;;;0.00;0.00;;;;;;;1.32;100.00;101103.19;5094017;27;99192;-27
2024/01/16 00:21:24;;;;;;;0.47;0.22;;;;;;;1.26;100.00;101100.63;5094822;27;97376;-27
2024/01/16 00:23:50;;;;;;;0.00;0.00;;;;;;;1.20;100.00;101101.63;5093914;27;98341;-27
2024/01/16 00:26:22;;;;;;;0.00;0.00;;;;;;;1.16;100.00;101101.69;5094237;27;96845;-27
2024/01/16 00:28:48;;;;;;;0.00;0.00;;;;;;;1.18;100.00;101121.22;5093553;27;99215;-28
2024/01/16 00:31:13;;;;;;;0.00;0.00;;;;;;;1.22;100.00;101117.59;5094350;27;97618;-27
2024/01/16 00:33:39;;;;;;;0.00;0.00;;;;;;;1.23;100.00;101130.03;5094440;27;96683;-27
2024/01/16 00:36:05;;;;;;;0.00;0.00;;;;;;;1.23;100.00;101125.56;5075827;27;96933;-27
2024/01/16 00:38:33;;;;;;;0.00;0.00;;;;;;;1.21;100.00;101130.03;5094034;27;98053;-27
2024/01/16 00:40:58;;;;;;;0.00;0.00;;;;;;;1.17;100.00;101122.13;5075221;27;100946;-27
2024/01/16 00:43:24;;;;;;;0.00;0.00;;;;;;;1.22;100.00;101122.94;5093846;27;96515;-26
2024/01/16 00:45:49;;;;;;;0.00;0.00;;;;;;;1.23;100.00;101120.22;5094209;27;96798;-27
2024/01/16 00:48:15;;;;;;;0.00;0.00;;;;;;;1.36;100.00;101117.31;5093979;27;99456;-26
2024/01/16 00:50:41;;;;;;;0.00;0.00;;;;;;;1.43;100.00;101125.19;5075015;27;100708;-27
2024/01/16 00:53:06;;;;;;;0.00;0.00;;;;;;;1.53;100.00;101131.25;5092970;27;97553;-27
2024/01/16 00:55:32;;;;;;;0.00;0.00;;;;;;;1.56;100.00;101139.19;5093794;27;96497;-27
2024/01/16 00:57:57;;;;;;;0.00;0.00;;;;;;;1.51;100.00;101135.72;5093600;27;99877;-26
2024/01/16 01:00:22;;;;;;;0.00;0.00;;;;;;;1.39;100.00;101135.97;5093506;27;99090;-27
2024/01/16 01:02:48;;;;;;;1.02;0.25;;;;;;;1.32;100.00;101124.53;5093927;27;96586;-27
2024/01/16 01:05:13;;;;;;;0.30;0.30;;;;;;;1.31;100.00;101128.13;5093561;27;96825;-27
2024/01/16 01:07:38;;;;;;;0.00;0.00;;;;;;;1.36;100.00;101128.00;5093349;27;100539;-27
2024/01/16 01:10:04;;;;;;;1.13;0.22;;;;;;;1.21;100.00;101116.69;5094051;27;97790;-27
2024/01/16 01:12:29;;;;;;;0.00;0.00;;;;;;;1.20;100.00;101114.97;5093458;27;96561;-27
2024/01/16 01:14:55;;;;;;;0.00;0.00;;;;;;;1.24;100.00;101131.78;5093915;27;96783;-27
2024/01/16 01:17:20;;;;;;;0.00;0.00;;;;;;;1.25;100.00;101142.44;5093158;27;97366;-27
2024/01/16 01:19:46;;;;;;;0.00;0.00;;;;;;;1.26;100.00;101130.88;5092556;27;97802;-28
2024/01/16 01:22:12;;;;;;;0.00;0.00;;;;;;;1.21;100.00;101126.50;5093196;27;96764;-27
2024/01/16 01:24:37;;;;;;;0.68;0.13;;;;;;;1.26;100.00;101135.28;5075051;27;96882;-27
2024/01/16 01:27:03;;;;;;;0.00;0.00;;;;;;;1.19;100.00;101123.88;5093496;27;97929;-27
2024/01/16 01:29:29;;;;;;;0.00;0.00;;;;;;;1.23;100.00;101138.03;5074564;27;102299;-27
2024/01/16 01:31:54;;;;;;;0.00;0.00;;;;;;;1.17;100.00;101123.03;5093157;27;96629;-28
2024/01/16 01:34:19;;;;;;;0.00;0.00;;;;;;;1.28;100.00;101146.81;5093927;27;96832;-27
2024/01/16 01:36:45;;;;;;;0.00;0.00;;;;;;;1.27;100.00;101147.75;5093041;27;97557;-27
2024/01/16 01:39:13;;;;;;;0.00;0.00;;;;;;;1.20;100.00;101154.09;5093000;27;98788;-27
2024/01/16 01:41:39;;;;;;;0.00;0.00;;;;;;;1.16;100.00;101160.41;5074163;27;97028;-27
2024/01/16 01:44:05;;;;;;;0.00;0.00;;;;;;;1.18;100.00;101163.91;5093534;27;96672;-27
2024/01/16 01:46:33;;;;;;;0.00;0.00;;;;;;;1.15;100.00;101162.19;5074461;27;100871;-27
2024/01/16 01:48:58;;;;;;;0.00;0.00;;;;;;;1.10;100.00;101169.41;5092828;27;99202;-27
2024/01/16 01:51:24;;;;;;;0.00;0.00;;;;;;;1.08;100.00;101165.88;5092845;27;96644;-27
2024/01/16 01:53:51;;;;;;;0.00;0.00;;;;;;;1.13;100.00;101163.13;5074621;27;96914;-27
2024/01/16 01:56:18;;;;;;;0.00;0.00;;;;;;;1.17;100.00;101157.72;5074418;27;101214;-27
2024/01/16 01:58:47;;;;;;;0.00;0.00;;;;;;;1.13;100.00;101139.13;5074762;27;100870;-27
2024/01/16 02:01:14;;;;;;;0.80;0.10;;;;;;;1.09;100.00;101134.72;5074248;27;96574;-27
2024/01/16 02:03:45;;;;;;;1.50;0.17;;;;;;;1.30;100.00;101145.00;5074278;27;96882;-27
2024/01/16 02:06:15;;;;;;;0.00;0.00;;;;;;;1.30;100.00;101138.81;5073269;27;101601;-27
2024/01/16 02:08:40;;;;;;;0.00;0.00;;;;;;;1.31;100.00;101132.53;5093071;27;97373;-27
2024/01/16 02:11:06;;;;;;;0.00;0.00;;;;;;;1.31;100.00;101137.88;5093163;27;96570;-26
2024/01/16 02:13:32;;;;;;;0.00;0.00;;;;;;;1.32;100.00;101124.53;5092668;27;96816;-27
2024/01/16 02:15:57;;;;;;;0.00;0.00;;;;;;;1.36;100.00;101120.00;5092477;27;99371;-27
2024/01/16 02:18:22;;;;;;;0.00;0.00;;;;;;;1.37;100.00;101127.09;5092653;27;97756;-27
2024/01/16 02:20:48;;;;;;;0.00;0.00;;;;;;;1.36;100.00;101139.56;5092919;27;96695;-27
2024/01/16 02:23:15;;;;;;;0.03;0.03;;;;;;;1.40;100.00;101141.25;5074562;27;96903;-27
2024/01/16 02:25:44;;;;;;;0.00;0.00;;;;;;;1.39;100.00;101130.63;5073788;27;100978;-27
2024/01/16 02:28:10;;;;;;;0.00;0.00;;;;;;;1.43;100.00;101142.97;5092745;27;97323;-28
2024/01/16 02:30:35;;;;;;;0.00;0.00;;;;;;;1.44;100.00;101134.97;5093069;27;96665;-27
2024/01/16 02:33:01;;;;;;;0.00;0.00;;;;;;;1.46;100.00;101140.28;5095728;27;96859;-27
2024/01/16 02:35:26;;;;;;;0.00;0.00;;;;;;;1.43;100.00;101141.22;5096069;27;98002;-27
2024/01/16 02:37:51;;;;;;;0.00;0.00;;;;;;;1.40;100.00;101127.03;5096362;27;97042;-27
2024/01/16 02:40:17;;;;;;;0.00;0.00;;;;;;;1.46;100.00;101143.81;5095885;27;96638;-27
2024/01/16 02:42:42;;;;;;;0.00;0.00;;;;;;;1.49;100.00;101142.88;5096147;27;96825;-27
2024/01/16 02:45:08;;;;;;;0.13;0.10;;;;;;;1.43;100.00;101121.63;5095842;27;97376;-28
2024/01/16 02:47:33;;;;;;;0.00;0.00;;;;;;;1.42;100.00;101123.44;5096155;27;97671;-27
2024/01/16 02:49:59;;;;;;;0.00;0.00;;;;;;;1.44;100.00;101129.63;5095441;27;96827;-27
2024/01/16 02:52:25;;;;;;;0.00;0.00;;;;;;;1.49;100.00;101121.53;5095481;27;96878;-27
2024/01/16 02:54:50;;;;;;;0.00;0.00;;;;;;;1.47;100.00;101126.00;5095107;27;99320;-27
2024/01/16 02:57:15;;;;;;;0.00;0.00;;;;;;;1.53;100.00;101128.56;5095549;27;99113;-27
2024/01/16 02:59:44;;;;;;;0.00;0.00;;;;;;;1.50;100.00;101128.59;5095829;27;96543;-27
2024/01/16 03:02:09;;;;;;;0.30;0.30;;;;;;;1.49;100.00;101129.53;5077041;27;96848;-27
2024/01/16 03:04:35;;;;;;;0.00;0.00;;;;;;;1.48;100.00;101136.66;5076573;27;101036;-27
2024/01/16 03:07:00;;;;;;;0.00;0.00;;;;;;;1.43;100.00;101129.63;5095756;27;97848;-27
2024/01/16 03:09:26;;;;;;;0.00;0.00;;;;;;;1.39;100.00;101131.50;5095828;27;96450;-27
2024/01/16 03:11:51;;;;;;;0.00;0.00;;;;;;;1.46;100.00;101127.81;5095879;27;96823;-27
2024/01/16 03:14:18;;;;;;;0.00;0.00;;;;;;;1.46;100.00;101132.28;5076677;27;101124;-28
2024/01/16 03:16:44;;;;;;;0.32;0.28;;;;;;;1.43;100.00;101121.63;5076468;27;101232;-27
2024/01/16 03:19:09;;;;;;;0.00;0.00;;;;;;;1.43;100.00;101127.88;5076254;27;97496;-27
2024/01/16 03:21:35;;;;;;;0.52;0.13;;;;;;;1.44;100.00;101124.28;5095487;27;96780;-26
2024/01/16 03:24:00;;;;;;;0.00;0.00;;;;;;;1.50;100.00;101128.59;5095109;27;103636;-27
2024/01/16 03:26:26;;;;;;;0.00;0.00;;;;;;;1.49;100.00;101121.53;5095264;27;97901;-27
2024/01/16 03:28:51;;;;;;;0.00;0.00;;;;;;;1.48;100.00;101130.47;5076605;27;96597;-27
2024/01/16 03:31:17;;;;;;;0.00;0.00;;;;;;;1.48;100.00;101123.31;5095028;27;96856;-28
2024/01/16 03:33:43;;;;;;;0.00;0.00;;;;;;;1.43;100.00;101118.97;5076398;27;100901;-27
2024/01/16 03:36:09;;;;;;;0.60;0.47;;;;;;;1.40;100.00;101103.88;5095325;27;99299;-27
2024/01/16 03:38:36;;;;;;;0.00;0.00;;;;;;;1.39;100.00;101101.28;5076539;27;96554;-27
2024/01/16 03:41:03;;;;;;;0.00;0.00;;;;;;;1.39;100.00;101104.81;5076442;27;96756;-27
2024/01/16 03:43:28;;;;;;;0.00;0.00;;;;;;;1.43;100.00;101106.53;5074940;27;101046;-27
2024/01/16 03:45:57;;;;;;;0.10;0.05;;;;;;;1.34;100.00;101101.38;5094873;27;97886;-27
2024/01/16 03:48:22;;;;;;;0.00;0.00;;;;;;;1.24;100.00;101091.75;5076407;27;96822;-27
2024/01/16 03:50:47;;;;;;;0.00;0.00;;;;;;;1.20;100.00;101092.75;5094965;27;96846;-27
2024/01/16 03:53:12;;;;;;;0.05;0.05;;;;;;;1.18;100.00;101092.75;5094550;27;99144;-27
2024/01/16 03:55:38;;;;;;;0.00;0.00;;;;;;;1.31;100.00;101097.84;5094474;27;106241;-27
2024/01/16 03:58:03;;;;;;;0.00;0.00;;;;;;;1.28;100.00;101101.47;5095363;27;97085;-27
2024/01/16 04:00:28;;;;;;;0.00;0.00;;;;;;;1.28;100.00;101107.69;5094999;27;96767;-28
2024/01/16 04:02:54;;;;;;;0.28;0.28;;;;;;;1.27;100.00;101095.25;5094634;27;99660;-27
2024/01/16 04:05:19;;;;;;;0.10;0.10;;;;;;;1.30;100.00;101088.09;5094147;27;106003;-28
2024/01/16 04:07:45;;;;;;;0.50;0.25;;;;;;;1.36;100.00;101101.31;5075517;27;96877;-27
2024/01/16 04:10:10;;;;;;;0.00;0.00;;;;;;;1.31;100.00;101093.44;5094672;27;96816;-27
2024/01/16 04:12:35;;;;;;;0.10;0.10;;;;;;;1.32;100.00;101088.97;5094564;27;97983;-27
2024/01/16 04:15:01;;;;;;;0.00;0.00;;;;;;;1.36;100.00;101087.97;5094061;27;98765;-27
2024/01/16 04:17:26;;;;;;;0.00;0.00;;;;;;;1.45;100.00;101087.78;5094710;27;96480;-29
2024/01/16 04:19:52;;;;;;;0.00;0.00;;;;;;;1.51;100.00;101084.13;5094661;27;96845;-27
2024/01/16 04:22:17;;;;;;;0.00;0.00;;;;;;;1.49;100.00;101077.03;5094364;27;97477;-27
2024/01/16 04:24:43;;;;;;;0.03;0.03;;;;;;;1.56;100.00;101085.78;5094843;27;97822;-27
2024/01/16 04:27:11;;;;;;;0.00;0.00;;;;;;;1.47;100.00;101086.84;5075644;27;96714;-27
2024/01/16 04:29:37;;;;;;;0.10;0.10;;;;;;;1.47;100.00;101091.31;5094130;27;96781;-27
2024/01/16 04:32:03;;;;;;;0.38;0.20;;;;;;;1.58;100.00;101083.97;5093637;27;99270;-28
2024/01/16 04:34:28;;;;;;;0.22;0.20;;;;;;;1.60;100.00;101086.63;5094128;27;99229;-28
2024/01/16 04:36:53;;;;;;;0.00;0.00;;;;;;;1.59;100.00;101084.84;5094394;27;96514;-27
2024/01/16 04:39:19;;;;;;;0.00;0.00;;;;;;;1.63;100.00;101082.06;5093883;27;99683;-27
2024/01/16 04:41:44;;;;;;;0.15;0.15;;;;;;;1.66;100.00;101075.78;5094218;27;97884;-28
2024/01/16 04:44:09;;;;;;;0.00;0.00;;;;;;;1.61;100.00;101078.56;5094029;27;97337;-27
2024/01/16 04:46:35;;;;;;;0.00;0.00;;;;;;;1.47;100.00;101080.63;5075255;27;96564;-28
2024/01/16 04:49:00;;;;;;;0.20;0.20;;;;;;;1.37;100.00;101087.94;5094504;27;96814;-27
2024/01/16 04:51:25;;;;;;;0.32;0.32;;;;;;;1.31;100.00;101090.75;5093361;27;98356;-27
2024/01/16 04:53:51;;;;;;;0.08;0.05;;;;;;;1.29;100.00;101081.91;5094073;27;96459;-27
2024/01/16 04:56:16;;;;;;;0.00;0.00;;;;;;;1.31;100.00;101076.50;5093308;27;96509;-28
2024/01/16 04:58:41;;;;;;;0.00;0.00;;;;;;;1.33;100.00;101080.03;5093668;27;96738;-27
2024/01/16 05:01:08;;;;;;;1.02;0.30;;;;;;;1.26;100.00;101065.94;5093548;27;99147;-27
2024/01/16 05:03:33;;;;;;;0.00;0.00;;;;;;;1.30;100.00;101070.31;5093472;27;99355;-28
2024/01/16 05:05:58;;;;;;;0.08;0.05;;;;;;;1.31;100.00;101061.41;5093380;27;96754;-27
2024/01/16 05:08:24;;;;;;;0.00;0.00;;;;;;;1.36;100.00;101058.63;5093581;27;96701;-27
2024/01/16 05:10:49;;;;;;;0.00;0.00;;;;;;;1.37;100.00;101057.72;5093299;27;99609;-27
2024/01/16 05:13:14;;;;;;;0.17;0.03;;;;;;;1.41;100.00;101057.63;5093809;27;97325;-27
2024/01/16 05:15:40;;;;;;;0.32;0.32;;;;;;;1.40;100.00;101052.31;5093584;27;97573;-27
2024/01/16 05:18:06;;;;;;;0.30;0.20;;;;;;;1.43;100.00;101037.13;5075049;27;96826;-27
2024/01/16 05:20:31;;;;;;;0.55;0.28;;;;;;;1.44;100.00;101032.66;5093079;27;97906;-28
2024/01/16 05:22:56;;;;;;;0.00;0.00;;;;;;;1.40;100.00;101022.97;5093369;27;101304;-27
2024/01/16 05:25:22;;;;;;;0.15;0.10;;;;;;;1.45;100.00;101042.41;5093597;27;96658;-27
2024/01/16 05:27:49;;;;;;;1.33;0.25;;;;;;;1.52;100.00;101020.03;5093293;27;96894;-28
2024/01/16 05:30:14;;;;;;;0.00;0.00;;;;;;;1.52;100.00;101021.81;5093276;27;99099;-27
2024/01/16 05:32:41;;;;;;;0.00;0.00;;;;;;;1.57;100.00;101022.59;5093421;27;97339;-27
2024/01/16 05:35:06;;;;;;;0.05;0.05;;;;;;;1.65;100.00;101017.97;5074336;27;96702;-28
2024/01/16 05:37:32;;;;;;;0.00;0.00;;;;;;;1.53;100.00;101011.13;5092921;27;96653;-31
2024/01/16 05:39:57;;;;;;;0.00;0.00;;;;;;;1.49;100.00;101015.63;5091824;27;99211;-26
2024/01/16 05:42:23;;;;;;;0.00;0.00;;;;;;;1.54;100.00;101012.88;5093173;27;97732;-28
2024/01/16 05:44:48;;;;;;;0.00;0.00;;;;;;;1.49;100.00;101006.75;5092956;27;96708;-27
2024/01/16 05:47:14;;;;;;;0.00;0.00;;;;;;;1.51;100.00;101012.94;5093562;27;96759;-26
2024/01/16 05:49:41;;;;;;;0.00;0.00;;;;;;;1.39;100.00;101008.75;5092881;27;99154;-26
2024/01/16 05:52:07;;;;;;;0.17;0.08;;;;;;;1.39;100.00;101000.72;5074065;27;101358;-27
2024/01/16 05:54:32;;;;;;;0.55;0.43;;;;;;;1.39;100.00;101002.53;5073581;27;97016;-30
2024/01/16 05:56:57;;;;;;;0.10;0.10;;;;;;;1.28;100.00;100986.72;5091434;27;97041;-34
2024/01/16 05:59:23;;;;;;;0.20;0.20;;;;;;;1.35;100.00;100990.16;5090759;27;99470;-27
2024/01/16 06:01:49;;;;;;;0.00;0.00;;;;;;;1.36;100.00;100997.25;5091123;27;99324;-32
2024/01/16 06:04:15;;;;;;;0.68;0.35;;;;;;;1.34;100.00;100989.28;5090446;27;96986;-27
2024/01/16 06:06:44;;;;;;;8.02;0.25;;;;;;;1.34;100.00;100988.41;5074913;27;97156;-28
2024/01/16 06:09:12;;;;;;;0.15;0.15;;;;;;;1.30;100.00;100986.72;5094196;27;98150;-27
2024/01/16 06:11:38;;;;;;;0.00;0.00;;;;;;;1.30;100.00;100992.91;5077641;27;101500;-27
2024/01/16 06:14:03;;;;;;;0.03;0.03;;;;;;;1.30;100.00;100997.38;5096383;27;96594;-27
2024/01/16 06:16:29;;;;;;;0.00;0.00;;;;;;;1.47;100.00;100995.22;5096662;27;96772;-27
2024/01/16 06:18:55;;;;;;;0.38;0.20;;;;;;;1.38;100.00;100990.97;5077566;27;101275;-27
2024/01/16 06:21:20;;;;;;;0.13;0.13;;;;;;;1.30;100.00;100986.72;5077419;27;101100;-27
2024/01/16 06:23:45;;;;;;;0.00;0.00;;;;;;;1.30;100.00;100995.59;5096328;27;96487;-27
2024/01/16 06:26:11;;;;;;;0.10;0.10;;;;;;;1.35;100.00;101006.16;5096365;27;96821;-27
2024/01/16 06:28:36;;;;;;;0.00;0.00;;;;;;;1.33;100.00;100991.97;5096133;27;102831;-27
2024/01/16 06:31:01;;;;;;;0.00;0.00;;;;;;;1.34;100.00;100997.28;5096207;27;97805;-27
2024/01/16 06:33:27;;;;;;;0.00;0.00;;;;;;;1.30;100.00;101002.72;5096023;27;96502;-27
2024/01/16 06:35:55;;;;;;;0.00;0.00;;;;;;;1.31;100.00;101004.47;5096348;27;96880;-27
2024/01/16 06:38:20;;;;;;;0.00;0.00;;;;;;;1.30;100.00;101005.38;5077421;27;99311;-27
2024/01/16 06:40:45;;;;;;;0.08;0.08;;;;;;;1.27;100.00;101006.34;5095994;27;97357;-27
2024/01/16 06:43:14;;;;;;;0.00;0.00;;;;;;;1.32;100.00;101008.91;5096083;27;98405;-28
2024/01/16 06:45:39;;;;;;;0.00;0.00;;;;;;;1.34;100.00;101015.09;5095887;27;96797;-27
2024/01/16 06:48:05;;;;;;;0.13;0.13;;;;;;;1.28;100.00;101005.41;5096051;27;98339;-26
2024/01/16 06:50:30;;;;;;;0.70;0.45;;;;;;;1.30;100.00;101005.38;5095918;27;97959;-27
2024/01/16 06:52:56;;;;;;;0.13;0.13;;;;;;;1.31;100.00;101008.03;5095534;27;96645;-27
2024/01/16 06:55:21;;;;;;;0.25;0.25;;;;;;;1.28;100.00;101000.94;5095574;27;98896;-27
2024/01/16 06:57:47;;;;;;;0.10;0.10;;;;;;;1.30;100.00;101011.59;5095347;27;97377;-27
2024/01/16 07:00:14;;;;;;;0.10;0.10;;;;;;;1.36;100.00;101013.25;5095315;27;98983;-27
2024/01/16 07:02:39;;;;;;;0.15;0.15;;;;;;;1.28;100.00;101006.28;5095596;27;96599;-27
2024/01/16 07:05:05;;;;;;;0.00;0.00;;;;;;;1.26;100.00;101016.13;5095307;27;96850;-28
2024/01/16 07:07:30;;;;;;;0.00;0.00;;;;;;;1.32;100.00;101027.59;5095411;27;99191;-28
2024/01/16 07:09:55;;;;;;;0.00;0.00;;;;;;;1.27;100.00;101009.00;5095350;27;99222;-27
2024/01/16 07:12:21;;;;;;;0.00;0.00;;;;;;;1.31;100.00;101008.03;5095383;27;96634;-27
2024/01/16 07:14:47;;;;;;;0.25;0.25;;;;;;;1.32;100.00;101011.56;5096174;27;96780;-28
2024/01/16 07:17:12;;;;;;;0.00;0.00;;;;;;;1.32;100.00;101017.78;5094235;27;97879;-27
2024/01/16 07:19:37;;;;;;;0.00;0.00;;;;;;;1.28;100.00;101000.06;5095418;27;97258;-28
2024/01/16 07:22:03;;;;;;;0.00;0.00;;;;;;;1.28;100.00;101011.63;5095047;27;96438;-28
2024/01/16 07:24:28;;;;;;;0.00;0.00;;;;;;;1.27;100.00;101020.53;5095153;27;96914;-30
2024/01/16 07:26:54;;;;;;;0.00;0.00;;;;;;;1.32;100.00;101033.78;5095593;27;96961;-27
2024/01/16 07:29:19;;;;;;;1.35;0.45;;;;;;;1.31;100.00;101036.47;5094999;27;99691;-26
2024/01/16 07:31:45;;;;;;;0.10;0.10;;;;;;;1.29;100.00;101044.53;5095193;27;96512;-27
2024/01/16 07:34:11;;;;;;;0.10;0.00;;;;;;;1.20;100.00;101048.25;5076949;27;96885;-26
2024/01/16 07:36:36;;;;;;;0.30;0.30;;;;;;;1.04;100.00;101039.66;5095199;27;97948;-28
2024/01/16 07:39:02;;;;;;;0.13;0.13;;;;;;;1.03;100.00;101039.72;5095416;27;97277;-27
2024/01/16 07:41:27;;;;;;;0.08;0.08;;;;;;;1.01;100.00;101033.53;5094793;27;97692;-27
2024/01/16 07:43:52;;;;;;;0.20;0.20;;;;;;;1.02;100.00;101048.59;5095293;27;96826;-27
2024/01/16 07:46:18;;;;;;;14.50;0.28;;;;;;;1.20;100.00;101058.06;5094236;27;104108;-28
2024/01/16 07:48:43;;;;;;;0.57;0.38;;;;;;;1.14;100.00;101050.16;5095036;27;97995;-27
2024/01/16 07:51:08;;;;;;;0.00;0.00;;;;;;;1.08;100.00;101051.19;5094503;27;96570;-26
2024/01/16 07:53:34;;;;;;;0.85;0.60;;;;;;;1.04;100.00;101050.34;5095073;27;99997;-27
2024/01/16 07:55:59;;;;;;;0.10;0.10;;;;;;;1.04;100.00;101050.34;5094374;27;99352;-27
2024/01/16 07:58:24;;;;;;;0.20;0.20;;;;;;;1.03;100.00;101037.06;5094644;27;101899;-26
2024/01/16 08:00:50;;;;;;;0.17;0.17;;;;;;;1.04;100.00;101042.34;5094897;27;96721;-27
2024/01/16 08:03:15;;;;;;;0.10;0.10;;;;;;;1.10;100.00;101052.03;5095211;27;96806;-27
2024/01/16 08:05:40;;;;;;;0.32;0.17;;;;;;;1.07;100.00;101046.72;5094251;27;99298;-27
2024/01/16 08:08:09;;;;;;;0.17;0.17;;;;;;;1.19;100.00;101046.53;5094606;27;97253;-27
2024/01/16 08:10:35;;;;;;;0.63;0.45;;;;;;;1.22;100.00;101043.78;5093922;27;96708;-27
2024/01/16 08:13:00;;;;;;;0.20;0.20;;;;;;;1.20;100.00;101044.72;5094793;27;96749;-27
2024/01/16 08:15:25;;;;;;;0.10;0.10;;;;;;;1.23;100.00;101050.84;5094576;27;97568;-27
2024/01/16 08:17:51;;;;;;;0.00;0.00;;;;;;;1.26;100.00;101044.56;5094367;27;103374;-27
2024/01/16 08:20:17;;;;;;;0.20;0.20;;;;;;;1.11;100.00;101039.56;5075897;27;96689;-27
2024/01/16 08:22:42;;;;;;;0.03;0.03;;;;;;;1.05;100.00;101045.91;5094221;27;96832;-27
2024/01/16 08:25:08;;;;;;;0.03;0.03;;;;;;;0.96;100.00;101033.63;5094280;27;97056;-27
2024/01/16 08:27:33;;;;;;;0.10;0.10;;;;;;;1.03;100.00;101039.72;5094790;27;97707;-27
2024/01/16 08:29:59;;;;;;;0.22;0.22;;;;;;;1.08;100.00;101050.31;5075374;27;96672;-27
2024/01/16 08:32:24;;;;;;;0.17;0.17;;;;;;;1.11;100.00;101051.09;5094568;27;96779;-27
2024/01/16 08:34:49;;;;;;;0.38;0.35;;;;;;;1.11;100.00;101051.09;5093758;27;97292;-27
2024/01/16 08:37:15;;;;;;;0.10;0.10;;;;;;;1.11;100.00;101051.09;5092393;27;99231;-26
2024/01/16 08:39:40;;;;;;;0.20;0.10;;;;;;;1.07;100.00;101049.41;5092458;27;96814;-28
2024/01/16 08:42:06;;;;;;;0.35;0.15;;;;;;;1.13;100.00;101053.75;5092755;27;96886;-27
2024/01/16 08:44:31;;;;;;;0.43;0.35;;;;;;;1.06;100.00;101037.84;5092475;27;99784;-27
2024/01/16 08:46:59;;;;;;;0.20;0.20;;;;;;;1.13;100.00;101043.09;5092697;27;97834;-27
2024/01/16 08:49:24;;;;;;;0.00;0.00;;;;;;;1.23;100.00;101047.31;5073685;27;96959;-34
2024/01/16 08:51:49;;;;;;;0.00;0.00;;;;;;;1.32;100.00;101044.47;5092722;27;96883;-28
2024/01/16 08:54:15;;;;;;;0.15;0.15;;;;;;;1.38;100.00;101048.78;5091892;27;101570;-28
2024/01/16 08:56:40;;;;;;;0.15;0.15;;;;;;;1.40;100.00;101050.50;5091147;27;105513;-29
2024/01/16 08:59:05;;;;;;;0.30;0.20;;;;;;;1.40;99.94;101033.63;5090757;27;101927;-28
2024/01/16 09:01:31;;;;;;;0.40;0.38;;;;;;;1.45;100.00;101034.41;5091318;27;97059;-29
2024/01/16 09:03:56;;;;;;;0.00;0.00;;;;;;;1.53;99.71;101043.16;5091654;27;97874;-29
2024/01/16 09:06:21;;;;;;;0.00;0.00;;;;;;;1.52;99.66;101043.16;5090823;27;99127;-30
2024/01/16 09:08:47;;;;;;;0.22;0.22;;;;;;;1.51;99.54;101036.09;5091538;27;96950;-30
2024/01/16 09:11:12;;;;;;;0.00;0.00;;;;;;;1.53;99.43;101043.16;5074936;27;96804;-27
2024/01/16 09:13:38;;;;;;;0.15;0.13;;;;;;;1.59;99.51;101042.13;5093687;27;97695;-27
2024/01/16 09:16:04;;;;;;;2.83;0.68;;;;;;;1.56;99.08;101043.06;5075297;27;101253;-27
2024/01/16 09:18:29;;;;;;;0.65;0.65;;;;;;;1.55;98.44;101046.66;5075142;27;96827;-27
2024/01/16 09:20:55;;;;;;;0.40;0.40;;;;;;;1.56;98.52;101043.06;5093732;27;96735;-27
2024/01/16 09:23:20;;;;;;;0.08;0.08;;;;;;;1.64;98.75;101057.13;5092752;27;97831;-27
2024/01/16 09:25:45;;;;;;;0.10;0.10;;;;;;;1.69;98.44;101049.94;5093432;27;97958;-27
2024/01/16 09:28:11;;;;;;;1.42;0.40;;;;;;;1.68;98.77;101041.94;5093456;27;96434;-27
2024/01/16 09:30:37;;;;;;;0.13;0.10;;;;;;;1.66;98.34;101057.09;5093456;27;96778;-26
2024/01/16 09:33:06;;;;;;;0.00;0.00;;;;;;;1.65;98.44;101045.56;5074736;27;101020;-27
2024/01/16 09:35:32;;;;;;;0.30;0.20;;;;;;;1.62;98.50;101036.72;5074642;27;100964;-27
2024/01/16 09:37:57;;;;;;;0.20;0.20;;;;;;;1.64;98.95;101040.25;5093206;27;96479;-28
2024/01/16 09:40:22;;;;;;;0.22;0.13;;;;;;;1.62;99.15;101036.72;5094084;27;98828;-27
2024/01/16 09:42:47;;;;;;;0.68;0.40;;;;;;;1.67;99.11;101045.53;5096902;27;98105;-27
2024/01/16 09:45:21;;;;;;;0.13;0.13;;;;;;;1.75;99.34;101046.22;5097376;27;97254;-27
2024/01/16 09:47:50;;;;;;;0.00;0.00;;;;;;;1.79;98.27;101031.00;5077859;27;97153;-28
2024/01/16 09:50:17;;;;;;;0.03;0.03;;;;;;;1.62;98.23;101026.03;5078005;27;97198;-27
2024/01/16 09:52:44;;;;;;;0.10;0.10;;;;;;;1.69;98.19;101046.34;5077903;27;101327;-27
2024/01/16 09:55:10;;;;;;;0.00;0.00;;;;;;;1.61;98.38;101034.97;5078132;27;101054;-27
2024/01/16 09:57:40;;;;;;;0.50;0.30;;;;;;;1.70;97.63;101034.78;5096712;27;96506;-27
2024/01/16 10:00:13;;;;;;;0.00;0.00;;;;;;;1.67;97.84;101013.50;5077998;27;96733;-27
2024/01/16 10:02:40;;;;;;;0.13;0.13;;;;;;;1.77;97.88;101020.38;5096891;27;98154;-27
2024/01/16 10:05:08;;;;;;;2.95;0.22;;;;;;;1.82;97.36;101030.97;5077922;27;101294;-27
2024/01/16 10:07:34;;;;;;;0.00;0.00;;;;;;;1.91;97.69;101025.41;5061394;27;96601;-29
2024/01/16 10:10:00;;;;;;;0.13;0.13;;;;;;;2.16;98.11;101030.16;5096720;27;96827;-27
2024/01/16 10:12:25;;;;;;;0.00;0.00;;;;;;;2.23;97.41;101021.09;5096055;27;98425;-27
2024/01/16 10:14:51;;;;;;;0.13;0.13;;;;;;;2.32;96.81;101029.75;5096456;27;97784;-27
2024/01/16 10:17:18;;;;;;;0.32;0.32;;;;;;;2.39;96.00;101011.78;5096302;27;96547;-27
2024/01/16 10:19:54;;;;;;;0.28;0.22;;;;;;;2.55;96.19;101021.16;5077475;27;96707;-27
2024/01/16 10:22:27;;;;;;;0.55;0.43;;;;;;;2.50;95.46;101012.38;5077642;27;101608;-27
2024/01/16 10:25:07;;;;;;;1.20;0.70;;;;;;;2.61;95.88;101024.59;5096232;27;99165;-27
2024/01/16 10:27:34;;;;;;;0.00;0.00;;;;;;;2.43;94.58;101007.22;5096472;27;96429;-27
2024/01/16 10:29:59;;;;;;;0.00;0.00;;;;;;;2.42;94.92;101017.03;5078077;27;96835;-27
2024/01/16 10:32:31;;;;;;;0.30;0.30;;;;;;;2.54;95.22;101019.38;5095736;27;105765;-27
2024/01/16 10:35:10;;;;;;;0.15;0.15;;;;;;;2.70;95.66;101003.84;5076167;27;98999;-27
2024/01/16 10:37:53;;;;;;;0.38;0.32;;;;;;;2.92;94.17;100998.78;5076476;27;97081;-27
2024/01/16 10:40:20;;;;;;;0.10;0.10;;;;;;;2.96;93.54;100999.59;5096045;27;96802;-29
2024/01/16 10:43:05;;;;;;;0.17;0.17;;;;;;;3.03;93.21;101013.63;5077258;27;98907;-28
2024/01/16 10:45:32;;;;;;;0.10;0.10;;;;;;;3.02;92.31;101006.56;5077423;27;100374;-27
2024/01/16 10:48:05;;;;;;;0.22;0.20;;;;;;;2.98;91.92;101001.28;5077253;27;96561;-27
2024/01/16 10:50:34;;;;;;;0.25;0.17;;;;;;;2.93;93.29;101000.53;5095581;27;96676;-27
2024/01/16 10:53:06;;;;;;;0.05;0.05;;;;;;;3.07;93.34;100996.59;5076333;27;99273;-27
2024/01/16 10:55:43;;;;;;;0.10;0.10;;;;;;;3.28;92.60;100995.97;5077672;27;101292;-27
2024/01/16 10:58:10;;;;;;;0.10;0.10;;;;;;;3.19;91.51;100994.47;5077320;27;96587;-27
2024/01/16 11:00:39;;;;;;;0.08;0.08;;;;;;;3.26;91.99;100996.94;5077065;27;96837;-27
2024/01/16 11:03:07;;;;;;;0.45;0.35;;;;;;;3.45;91.90;100976.72;5095021;27;99386;-27
2024/01/16 11:05:33;;;;;;;0.00;0.00;;;;;;;3.70;91.47;100976.00;5076373;27;99082;-27
2024/01/16 11:08:03;;;;;;;0.32;0.30;;;;;;;3.60;91.11;100978.09;5077114;27;96858;-27
2024/01/16 11:10:30;;;;;;;0.28;0.17;;;;;;;3.40;90.70;100967.97;5095490;27;96856;-27
2024/01/16 11:13:00;;;;;;;0.57;0.40;;;;;;;3.24;88.92;100972.00;5076952;27;101219;-27
2024/01/16 11:15:28;;;;;;;0.52;0.40;;;;;;;3.08;90.49;100961.78;5076982;27;102022;-28
2024/01/16 11:17:55;;;;;;;0.28;0.22;;;;;;;3.23;90.13;100971.16;5095520;27;96474;-29
2024/01/16 11:20:21;;;;;;;0.00;0.00;;;;;;;3.27;86.60;100967.47;5077264;27;96796;-27
2024/01/16 11:22:48;;;;;;;0.00;0.00;;;;;;;3.18;85.68;100951.66;5076634;27;101001;-27